METAR AND TAF INFORMATION
METAR FOR EHWO
ADDS - METARS form results

(2127 UTC 15 December 2017)
Data provider http://aviationweather.gov/adds/metars/
 
METAR text: EHWO 152125Z AUTO 00000KT 1100 BR FEW022 SCT027 OVC031 00/00 Q1002 AMB
Conditions at: EHWO (WOENSDRECHT RNLA, NL) observed 2125 UTC 15 December 2017
Temperature: 0.0°C (32°F)
Dewpoint: 0.0°C (32°F) [RH = 100%]
Pressure (altimeter): 29.59 inches Hg (1002.0 mb)
Winds: calm
Visibility: 0.68 miles (1.09 km)
Ceiling: 3100 feet AGL
Clouds: few clouds at 2200 feet AGL
scattered clouds at 2700 feet AGL
overcast cloud deck at 3100 feet AGL
Weather: BR  (mist)

METAR text: EHWO 152107Z AUTO VRB01KT 1800 BR BKN023 OVC029 01/01 Q1002 YLO
Conditions at: EHWO (WOENSDRECHT RNLA, NL) observed 2107 UTC 15 December 2017
Temperature: 1.0°C (34°F)
Dewpoint: 1.0°C (34°F) [RH = 100%]
Pressure (altimeter): 29.59 inches Hg (1002.0 mb)
Winds: variable direction winds at 1 MPH (1 knots; 0.5 m/s)
Visibility: 1.12 miles (1.80 km)
Ceiling: 2300 feet AGL
Clouds: broken clouds at 2300 feet AGL
overcast cloud deck at 2900 feet AGL
Weather: BR  (mist)

METAR text: EHWO 152056Z AUTO VRB01KT 1300 BR FEW000 BKN024 BKN029 00/00 Q1002 AMB
Conditions at: EHWO (WOENSDRECHT RNLA, NL) observed 2056 UTC 15 December 2017
Temperature: 0.0°C (32°F)
Dewpoint: 0.0°C (32°F) [RH = 100%]
Pressure (altimeter): 29.59 inches Hg (1002.0 mb)
Winds: variable direction winds at 1 MPH (1 knots; 0.5 m/s)
Visibility: 0.81 miles (1.30 km)
Ceiling: 2400 feet AGL
Clouds: few clouds at 0 feet AGL
broken clouds at 2400 feet AGL
broken clouds at 2900 feet AGL
Weather: BR  (mist)

METAR text: EHWO 152055Z AUTO VRB01KT 0350 FZFG SCT000 SCT024 BKN029 M00/M00 Q1002 RED
Conditions at: EHWO (WOENSDRECHT RNLA, NL) observed 2055 UTC 15 December 2017
Temperature: 0.0°C (32°F)
Dewpoint: 0.0°C (32°F) [RH = 100%]
Pressure (altimeter): 29.59 inches Hg (1002.0 mb)
Winds: variable direction winds at 1 MPH (1 knots; 0.5 m/s)
Visibility: 0.22 miles (0.35 km)
Ceiling: 2900 feet AGL
Clouds: scattered clouds at 0 feet AGL
scattered clouds at 2400 feet AGL
broken clouds at 2900 feet AGL
Weather: FZFG  (freezing fog)

METAR text: EHWO 152041Z AUTO VRB01KT 0250 FZFG VV000 M00/M00 Q1002 RED
Conditions at: EHWO (WOENSDRECHT RNLA, NL) observed 2041 UTC 15 December 2017
Temperature: 0.0°C (32°F)
Dewpoint: 0.0°C (32°F) [RH = 100%]
Pressure (altimeter): 29.59 inches Hg (1002.0 mb)
Winds: variable direction winds at 1 MPH (1 knots; 0.5 m/s)
Visibility: 0.16 miles (0.26 km)
Ceiling: indefinite ceiling with vertical visibility of 0 feet AGL
Clouds: obscured sky
Weather: FZFG  (freezing fog)

Forecast for: EHWO (WOENSDRECHT RNLA, NL)
Text: TAF EHWO 150906Z 1510/1522 22008KT 9999 BKN008
Forecast period: 1000 to 1500 UTC 15 December 2017
Forecast type: FROM: standard forecast or significant change
Winds: from the SW (220 degrees) at 9 MPH (8 knots; 4.2 m/s)
Visibility: 6 or more miles (10+ km)
Ceiling: 800 feet AGL
Clouds: broken clouds at 800 feet AGL
Weather: no significant weather forecast for this period
Text: PROB40
Forecast period: 1000 to 1600 UTC 15 December 2017
Forecast type: TEMPORARY: The following changes expected for less than half the time period
Ceiling: 2500 feet AGL
Clouds: few clouds at 800 feet AGL
broken clouds at 2500 feet AGL
Weather: no significant weather forecast for this period
Text: TEMPO 1510/1516 FEW008 BKN025
Forecast period: 1000 to 1600 UTC 15 December 2017
Forecast type: TEMPORARY: The following changes expected for less than half the time period
Visibility: 2.49 miles (4.01 km)
Ceiling: 700 feet AGL
Clouds: few clouds at 500 feet AGL
broken clouds at 700 feet AGL
scattered clouds at 1400 feet AGL
Weather: -SHRA -SHGS  (light rain showers could not decipher "-SHGS")
Text: PROB30
Forecast period: 1500 to 1800 UTC 15 December 2017
Forecast type: BECOMING: Conditions expected to become as follows by 1800 UTC 15 December 2017
Winds: variable direction winds at 2 MPH (2 knots; 1.0 m/s)
Visibility: 2.49 miles (4.01 km)
Ceiling: 1500 feet AGL
Clouds: broken clouds at 1500 feet AGL
Weather: BR  (mist)
Text: TEMPO 1510/1516 4000 -SHRAGS FEW005 BKN007 SCT014CB BKN020
Forecast period: 1800 to 2200 UTC 15 December 2017
Forecast type: BECOMING: Conditions expected to become as follows by 2000 UTC 15 December 2017
Winds: variable direction winds at 2 MPH (2 knots; 1.0 m/s)
Visibility: 2.49 miles (4.01 km)
Clouds: scattered clouds at 3000 feet AGL
Weather: BR  (mist)

 AIRPORT MAP

 RUNWAY INFORMATION
Runway 07 Runway length 7996 ft Runway width 148 ft
Runway elevation 39 ft Runway displaced threshold 0 ft Runway heading 69
Runway 25 Runway length 7996 ft Runway width 148 ft
Runway elevation 63 ft Runway displaced threshold 0 ft Runway heading 249

 AIRPORT FREQUENCIES
Type APP Name RAPCON WES Frequency 123.575 MHZ
Type ARR Name ARRIVAL Frequency 123.575 MHZ
Type TWR Name TWR Frequency 118.5 MHZ

 AIRPORT NEAR NAVIGATION AIDS
Type TACAN Name Woensdrecht Frequency 115000 KHZ